Pays
Station

 

Conditions  météo  pour  Klagenfurt-Flughafen  -  Autriche    Autriche

  
19 °C
    
 
 

METAR pour Klagenfurt-Flughafen :

LOWK 251250Z VRB05KT 9999 FEW060 BKN070 19/06 Q1025 NOSIG

 

Voici le bulletin pour Klagenfurt-Flughafen - Autriche.
 
Le bulletin a été fait il y a 35 minutes, à 12:50 UTC .
Le vent soufflait à la vitesse de 2.6 mètres par seconde de direction variable.
 
La température était de 19 °C, avec un point de rosée à 6 °C.
La pression atmosphérique était de 1025 hPa.
L'humidité relative était de 42.6%.
 
Il y avait 1 à 2/8ème de nébulosité à une hauteur de 1829 mètres et 5 à 7/8ème de nébulosité à une hauteur de 2134 mètres.
 
La visibilité globale était de supérieure à 10 kilomètres.
 

 
 
 

Pays :   A   B   C   D   E   F   G   H   I   J   K   L   M   N   O   P   Q   R   S   T   U   V   W   Y   Z

 

Partenaires :  Info Météo avec Met'info
Météo Marine avec MeteoMarine.net
Infos Site  |  Infos Légales  |  Crédits  |  Confidentialité
Contactez-nous  |  Ajouter aux favoris
© 2013-2020 METAR - Tous droits réservés